createdAt,value
2019-03-05T00:00:59.486Z,4.00
2019-03-05T00:03:28.414Z,3.96
2019-03-05T00:05:57.277Z,3.96
2019-03-05T00:08:26.133Z,4.02
2019-03-05T00:10:54.969Z,3.97
2019-03-05T00:13:23.749Z,3.91
2019-03-05T00:15:52.999Z,3.96
2019-03-05T00:18:21.760Z,3.96
2019-03-05T00:20:50.531Z,3.92
2019-03-05T00:23:38.283Z,3.88
2019-03-05T00:26:07.127Z,3.84
2019-03-05T00:28:38.878Z,3.87
2019-03-05T00:31:10.633Z,3.80
2019-03-05T00:33:45.254Z,3.80
2019-03-05T00:36:16.935Z,3.81
2019-03-05T00:39:12.734Z,3.70
2019-03-05T00:41:49.958Z,3.74
2019-03-05T00:44:53.029Z,3.65
2019-03-05T00:47:45.525Z,3.60
2019-03-05T00:50:28.850Z,3.59
2019-03-05T00:53:03.364Z,3.50
2019-03-05T00:55:51.258Z,3.48
2019-03-05T00:58:32.108Z,3.34
2019-03-05T01:01:06.502Z,3.30
2019-03-05T01:03:59.266Z,3.34
2019-03-05T01:06:28.240Z,3.35
2019-03-05T01:08:57.820Z,3.17
2019-03-05T01:11:26.764Z,3.22
2019-03-05T01:13:55.523Z,3.21
2019-03-05T01:16:28.989Z,3.24
2019-03-05T01:18:57.751Z,3.17
2019-03-05T01:21:26.594Z,3.16
2019-03-05T01:23:55.361Z,3.18
2019-03-05T01:26:24.246Z,3.06
2019-03-05T01:28:53.078Z,3.06
2019-03-05T01:31:23.486Z,3.03
2019-03-05T01:36:42.984Z,2.98
2019-03-05T01:39:16.151Z,2.97
2019-03-05T01:41:44.925Z,2.91
2019-03-05T01:44:13.740Z,3.03
2019-03-05T01:46:42.579Z,3.09
2019-03-05T01:49:11.404Z,3.06
2019-03-05T01:51:40.240Z,3.00
2019-03-05T01:54:09.071Z,2.98
2019-03-05T01:56:37.901Z,2.89
2019-03-05T01:59:06.680Z,2.69
2019-03-05T02:01:35.463Z,2.50
2019-03-05T02:04:04.307Z,2.64
2019-03-05T02:06:33.139Z,2.59
2019-03-05T02:09:01.990Z,2.62
2019-03-05T02:11:30.926Z,2.55
2019-03-05T02:13:59.789Z,2.48
2019-03-05T02:16:28.624Z,2.39
2019-03-05T02:19:09.260Z,2.29
2019-03-05T02:21:38.096Z,2.33
2019-03-05T02:24:21.926Z,2.34
2019-03-05T02:27:18.768Z,2.32
2019-03-05T02:29:59.036Z,2.26
2019-03-05T02:32:39.720Z,2.16
2019-03-05T02:35:19.691Z,2.11
2019-03-05T02:38:05.711Z,2.10
2019-03-05T02:40:36.539Z,2.21
2019-03-05T02:43:28.826Z,2.21
2019-03-05T02:46:00.499Z,2.14
2019-03-05T02:48:46.872Z,2.16
2019-03-05T02:51:37.722Z,2.18
2019-03-05T02:54:18.356Z,2.09
2019-03-05T02:56:53.015Z,2.16
2019-03-05T02:59:21.853Z,2.16
2019-03-05T03:02:08.197Z,2.03
2019-03-05T03:04:41.562Z,1.97
2019-03-05T03:07:10.396Z,2.03
2019-03-05T03:09:42.148Z,1.98
2019-03-05T03:12:10.995Z,2.06
2019-03-05T03:14:39.838Z,2.11
2019-03-05T03:17:08.662Z,2.18
2019-03-05T03:19:37.435Z,2.20
2019-03-05T03:22:06.208Z,2.25
2019-03-05T03:24:34.970Z,2.26
2019-03-05T03:27:03.794Z,2.32
2019-03-05T03:29:32.570Z,2.34
2019-03-05T03:32:01.649Z,2.25
2019-03-05T03:34:30.577Z,2.10
2019-03-05T03:36:59.324Z,2.15
2019-03-05T03:39:28.157Z,2.19
2019-03-05T03:41:56.926Z,2.15
2019-03-05T03:44:25.695Z,2.08
2019-03-05T03:46:54.469Z,2.03
2019-03-05T03:49:23.233Z,2.04
2019-03-05T03:51:52.076Z,1.96
2019-03-05T03:54:20.844Z,1.96
2019-03-05T03:56:49.597Z,1.81
2019-03-05T03:59:18.439Z,1.74
2019-03-05T04:01:47.226Z,1.75
2019-03-05T04:04:15.993Z,1.68
2019-03-05T04:06:44.846Z,1.68
2019-03-05T04:09:13.637Z,1.61
2019-03-05T04:11:42.467Z,1.45
2019-03-05T04:14:11.316Z,1.35
2019-03-05T04:16:40.162Z,1.44
2019-03-05T04:19:10.583Z,1.44
2019-03-05T04:21:39.339Z,1.38
2019-03-05T04:24:08.189Z,1.42
2019-03-05T04:26:37.050Z,1.49
2019-03-05T04:29:05.827Z,1.45
2019-03-05T04:31:34.614Z,1.34
2019-03-05T04:34:03.375Z,1.34
2019-03-05T04:36:32.134Z,1.39
2019-03-05T04:39:00.975Z,1.35
2019-03-05T04:41:29.735Z,1.28
2019-03-05T04:43:58.585Z,1.26
2019-03-05T04:46:28.997Z,1.38
2019-03-05T04:49:02.369Z,1.35
2019-03-05T04:51:32.783Z,1.48
2019-03-05T04:54:01.607Z,1.48
2019-03-05T04:56:30.456Z,1.48
2019-03-05T04:58:59.558Z,1.58
2019-03-05T05:01:28.413Z,1.69
2019-03-05T05:03:57.341Z,1.71
2019-03-05T05:06:26.187Z,1.71
2019-03-05T05:08:55.032Z,1.88
2019-03-05T05:11:23.837Z,1.95
2019-03-05T05:13:52.731Z,2.00
2019-03-05T05:16:21.571Z,2.07
2019-03-05T05:18:50.418Z,2.05
2019-03-05T05:21:19.264Z,2.18
2019-03-05T05:23:48.223Z,2.41
2019-03-05T05:26:17.839Z,2.48
2019-03-05T05:28:46.791Z,2.56
2019-03-05T05:31:15.630Z,2.81
2019-03-05T05:33:44.471Z,2.89
2019-03-05T05:36:13.489Z,2.99
2019-03-05T05:38:42.404Z,3.15
2019-03-05T05:41:11.281Z,3.34
2019-03-05T05:43:40.101Z,3.21
2019-03-05T05:46:08.943Z,3.37
2019-03-05T05:48:37.731Z,3.60
2019-03-05T05:51:06.559Z,3.60
2019-03-05T05:53:35.354Z,3.60
2019-03-05T05:56:04.179Z,3.87
2019-03-05T05:58:33.025Z,3.99
2019-03-05T06:01:03.422Z,4.34
2019-03-05T06:03:32.286Z,4.61
2019-03-05T06:06:01.045Z,4.83
2019-03-05T06:08:29.824Z,5.26
2019-03-05T06:10:58.663Z,5.45
2019-03-05T06:13:27.442Z,5.67
2019-03-05T06:15:56.215Z,5.60
2019-03-05T06:18:25.083Z,5.73
2019-03-05T06:20:53.904Z,5.96
2019-03-05T06:23:22.724Z,6.05
2019-03-05T06:25:51.502Z,6.09
2019-03-05T06:28:20.276Z,6.24
2019-03-05T06:30:49.108Z,6.44
2019-03-05T06:33:17.866Z,6.65
2019-03-05T06:35:46.727Z,6.66
2019-03-05T06:38:15.550Z,6.83
2019-03-05T06:40:44.388Z,7.22
2019-03-05T06:43:13.810Z,7.58
2019-03-05T06:45:42.650Z,7.60
2019-03-05T06:48:12.074Z,7.43
2019-03-05T06:50:40.866Z,7.49
2019-03-05T06:53:10.217Z,7.49
2019-03-05T06:55:39.570Z,7.70
2019-03-05T06:58:11.593Z,7.99
2019-03-05T07:00:41.126Z,8.37
2019-03-05T07:03:10.761Z,8.70
2019-03-05T07:06:15.780Z,8.50
2019-03-05T07:08:51.074Z,8.64
2019-03-05T07:11:23.426Z,9.02
2019-03-05T07:13:56.027Z,9.51
2019-03-05T07:16:39.904Z,9.68
2019-03-05T07:19:09.266Z,9.66
2019-03-05T07:22:02.670Z,9.58
2019-03-05T07:24:43.910Z,9.63
2019-03-05T07:27:14.777Z,9.64
2019-03-05T07:29:44.141Z,9.54
2019-03-05T07:32:13.653Z,9.84
2019-03-05T07:34:44.634Z,10.11
2019-03-05T07:37:14.212Z,9.91
2019-03-05T07:39:43.707Z,10.10
2019-03-05T07:42:13.294Z,9.86
2019-03-05T07:44:42.653Z,10.48
2019-03-05T07:47:12.174Z,10.55
2019-03-05T07:49:44.141Z,10.38
2019-03-05T07:52:12.707Z,10.27
2019-03-05T07:54:42.128Z,10.66
2019-03-05T07:57:11.494Z,10.67
2019-03-05T07:59:40.859Z,10.82
2019-03-05T08:02:10.308Z,11.02
2019-03-05T08:04:39.684Z,11.18
2019-03-05T08:07:09.315Z,11.48
2019-03-05T08:09:39.059Z,11.21
2019-03-05T08:12:29.539Z,11.01
2019-03-05T08:15:13.800Z,11.26
2019-03-05T08:17:43.168Z,11.45
2019-03-05T08:20:13.289Z,11.75
2019-03-05T08:22:42.676Z,12.00
2019-03-05T08:25:12.895Z,12.20
2019-03-05T08:27:42.336Z,12.31
2019-03-05T08:30:17.165Z,12.27
2019-03-05T08:35:27.981Z,13.22
2019-03-05T08:37:57.406Z,13.40
2019-03-05T08:40:26.784Z,13.52
2019-03-05T08:42:56.208Z,13.63
2019-03-05T08:45:29.581Z,13.63
2019-03-05T08:47:56.733Z,14.29
2019-03-05T08:50:26.158Z,13.96
2019-03-05T08:52:55.571Z,14.25
2019-03-05T08:58:05.673Z,15.00
2019-03-05T09:00:35.108Z,14.92
2019-03-05T09:03:04.482Z,14.84
2019-03-05T09:05:33.914Z,15.14
2019-03-05T09:08:03.342Z,14.72
2019-03-05T09:10:32.870Z,14.85
2019-03-05T09:13:02.331Z,14.95
2019-03-05T09:15:31.696Z,15.21
2019-03-05T09:18:01.145Z,15.25
2019-03-05T09:20:30.584Z,15.33
2019-03-05T09:23:00.010Z,15.38
2019-03-05T09:25:29.379Z,15.58
2019-03-05T09:27:58.811Z,15.85
2019-03-05T09:30:28.356Z,16.43
2019-03-05T09:32:57.717Z,16.44
2019-03-05T09:35:27.089Z,16.60
2019-03-05T09:37:56.534Z,16.73
2019-03-05T09:40:33.047Z,17.04
2019-03-05T09:43:02.397Z,17.49
2019-03-05T09:45:31.774Z,17.74
2019-03-05T09:48:01.142Z,17.77
2019-03-05T09:50:32.193Z,17.90
2019-03-05T09:53:02.219Z,18.28
2019-03-05T09:55:34.437Z,18.20
2019-03-05T09:58:08.367Z,18.35
2019-03-05T10:00:36.093Z,17.86
2019-03-05T10:03:06.025Z,17.85
2019-03-05T10:05:35.480Z,18.10
2019-03-05T10:08:05.519Z,18.18
2019-03-05T10:10:34.895Z,18.07
2019-03-05T10:13:04.702Z,17.87
2019-03-05T10:15:34.072Z,17.81
2019-03-05T10:18:12.086Z,18.15
2019-03-05T10:20:36.075Z,18.17
2019-03-05T10:23:05.863Z,18.57
2019-03-05T10:25:35.284Z,19.33
2019-03-05T10:28:05.026Z,19.85
2019-03-05T10:30:43.248Z,19.78
2019-03-05T10:33:13.185Z,20.11
2019-03-05T10:35:42.624Z,19.94
2019-03-05T10:38:12.874Z,20.50
2019-03-05T10:40:44.870Z,20.49
2019-03-05T10:43:16.316Z,20.70
2019-03-05T10:45:49.335Z,20.81
2019-03-05T10:48:23.958Z,21.28
2019-03-05T10:50:53.485Z,21.21
2019-03-05T10:53:22.929Z,21.16
2019-03-05T10:55:52.507Z,21.54
2019-03-05T10:58:32.758Z,21.54
2019-03-05T11:00:55.484Z,21.96
2019-03-05T11:03:27.375Z,22.14
2019-03-05T11:05:56.728Z,22.52
2019-03-05T11:08:27.171Z,22.67
2019-03-05T11:10:57.016Z,23.08
2019-03-05T11:13:26.081Z,23.68
2019-03-05T11:15:57.730Z,23.68
2019-03-05T11:18:29.817Z,23.78
2019-03-05T11:20:58.471Z,24.07
2019-03-05T11:23:27.847Z,24.22
2019-03-05T11:25:57.285Z,23.71
2019-03-05T11:28:26.721Z,23.99
2019-03-05T11:30:56.164Z,24.28
2019-03-05T11:33:25.616Z,24.28
2019-03-05T11:35:54.990Z,23.72
2019-03-05T11:38:24.375Z,23.90
2019-03-05T11:40:53.729Z,24.34
2019-03-05T11:43:23.174Z,24.75
2019-03-05T11:45:52.551Z,24.75
2019-03-05T11:48:21.960Z,25.09
2019-03-05T11:50:51.699Z,24.63
2019-03-05T11:53:20.905Z,24.66
2019-03-05T11:55:50.260Z,24.23
2019-03-05T11:58:19.314Z,24.24
2019-03-05T12:00:59.032Z,24.63
2019-03-05T12:03:28.467Z,24.42
2019-03-05T12:05:57.831Z,24.11
2019-03-05T12:08:27.263Z,24.30
2019-03-05T12:10:56.313Z,24.30
2019-03-05T12:13:25.390Z,24.17
2019-03-05T12:15:54.823Z,24.81
2019-03-05T12:18:25.440Z,24.74
2019-03-05T12:20:54.943Z,24.60
2019-03-05T12:23:24.298Z,24.11
2019-03-05T12:25:53.662Z,24.08
2019-03-05T12:28:23.009Z,24.08
2019-03-05T12:30:52.376Z,24.75
2019-03-05T12:33:21.789Z,24.75
2019-03-05T12:35:51.135Z,24.43
2019-03-05T12:38:20.190Z,24.60
2019-03-05T12:40:49.561Z,25.26
2019-03-05T12:43:18.924Z,25.30
2019-03-05T12:45:48.295Z,26.02
2019-03-05T12:48:17.433Z,26.02
2019-03-05T12:50:46.504Z,25.80
2019-03-05T12:53:16.130Z,26.49
2019-03-05T12:55:45.326Z,26.49
2019-03-05T12:58:14.392Z,25.48
2019-03-05T13:00:43.555Z,25.48
2019-03-05T13:03:12.925Z,24.35
2019-03-05T13:05:42.269Z,24.35
2019-03-05T13:08:11.640Z,24.18
2019-03-05T13:10:41.051Z,23.58
2019-03-05T13:13:13.850Z,23.74
2019-03-05T13:15:42.391Z,23.94
2019-03-05T13:18:14.198Z,24.38
2019-03-05T13:20:42.901Z,24.13
2019-03-05T13:23:12.255Z,23.92
2019-03-05T13:25:41.614Z,23.92
2019-03-05T13:28:11.044Z,23.48
2019-03-05T13:30:40.589Z,23.74
2019-03-05T13:33:09.713Z,23.74
2019-03-05T13:35:39.123Z,24.21
2019-03-05T13:38:12.549Z,24.35
2019-03-05T13:40:42.000Z,24.35
2019-03-05T13:43:11.361Z,24.04
2019-03-05T13:45:42.842Z,24.14
2019-03-05T13:48:32.215Z,24.14
2019-03-05T13:51:10.046Z,24.15
2019-03-05T13:54:01.272Z,24.15
2019-03-05T13:56:54.869Z,24.04
2019-03-05T13:59:36.991Z,23.53
2019-03-05T14:02:08.030Z,23.38
2019-03-05T14:04:49.165Z,23.38
2019-03-05T14:07:27.306Z,23.44
2019-03-05T14:09:56.672Z,23.64
2019-03-05T14:12:26.088Z,23.46
2019-03-05T14:14:57.715Z,23.67
2019-03-05T14:17:26.675Z,23.67
2019-03-05T14:19:56.013Z,23.79
2019-03-05T14:22:25.377Z,23.71
2019-03-05T14:25:02.087Z,23.68
2019-03-05T14:27:25.809Z,23.89
2019-03-05T14:29:55.208Z,24.15
2019-03-05T14:32:24.741Z,24.06
2019-03-05T14:35:00.364Z,23.90
2019-03-05T14:37:31.015Z,23.46
2019-03-05T14:40:22.214Z,23.46
2019-03-05T14:42:31.797Z,23.53
2019-03-05T14:45:01.261Z,23.53
2019-03-05T14:47:30.701Z,23.42
2019-03-05T14:50:00.217Z,23.42
2019-03-05T14:52:29.991Z,23.10
2019-03-05T14:54:59.433Z,22.69
2019-03-05T14:57:28.867Z,22.37
2019-03-05T14:59:58.262Z,22.45
2019-03-05T15:02:27.701Z,22.42
2019-03-05T15:04:57.164Z,22.14
2019-03-05T15:07:26.589Z,21.85
2019-03-05T15:09:56.001Z,21.67
2019-03-05T15:12:25.348Z,21.59
2019-03-05T15:14:54.717Z,21.54
2019-03-05T15:17:24.223Z,21.42
2019-03-05T15:19:53.610Z,21.23
2019-03-05T15:22:22.970Z,21.03
2019-03-05T15:24:52.406Z,20.96
2019-03-05T15:27:21.799Z,20.96
2019-03-05T15:29:51.203Z,20.86
2019-03-05T15:32:20.624Z,20.67
2019-03-05T15:34:50.053Z,20.56
2019-03-05T15:37:19.471Z,20.40
2019-03-05T15:39:48.952Z,20.34
2019-03-05T15:42:18.281Z,20.27
2019-03-05T15:44:47.745Z,20.20
2019-03-05T15:47:17.212Z,20.04
2019-03-05T15:49:46.685Z,19.98
2019-03-05T15:52:16.036Z,19.90
2019-03-05T15:54:45.403Z,19.83
2019-03-05T15:57:14.784Z,19.77
2019-03-05T15:59:44.166Z,19.64
2019-03-05T16:02:13.742Z,19.55
2019-03-05T16:04:43.842Z,19.44
2019-03-05T16:07:13.429Z,19.29
2019-03-05T16:09:43.951Z,19.06
2019-03-05T16:12:13.408Z,18.92
2019-03-05T16:14:42.825Z,18.85
2019-03-05T16:17:12.179Z,18.79
2019-03-05T16:19:41.537Z,18.69
2019-03-05T16:22:14.268Z,18.65
2019-03-05T16:24:42.046Z,18.56
2019-03-05T16:27:11.738Z,18.49
2019-03-05T16:29:41.164Z,18.46
2019-03-05T16:32:23.060Z,18.41
2019-03-05T16:34:53.859Z,18.36
2019-03-05T16:37:24.947Z,18.25
2019-03-05T16:40:05.360Z,18.12
2019-03-05T16:42:43.749Z,18.00
2019-03-05T16:45:23.587Z,17.96
2019-03-05T16:48:15.614Z,17.98
2019-03-05T16:51:01.742Z,17.92
2019-03-05T16:53:48.778Z,17.81
2019-03-05T16:56:22.782Z,17.57
2019-03-05T16:59:09.933Z,17.48
2019-03-05T17:01:40.964Z,17.44
2019-03-05T17:04:27.894Z,17.37
2019-03-05T17:07:15.310Z,17.27
2019-03-05T17:09:48.967Z,17.20
2019-03-05T17:12:18.410Z,17.12
2019-03-05T17:14:47.849Z,17.04
2019-03-05T17:17:17.333Z,16.95
2019-03-05T17:19:46.892Z,16.88
2019-03-05T17:22:16.312Z,16.82
2019-03-05T17:24:45.686Z,16.83
2019-03-05T17:27:15.626Z,16.82
2019-03-05T17:29:45.077Z,16.79
2019-03-05T17:32:15.230Z,16.78
2019-03-05T17:34:44.588Z,16.68
2019-03-05T17:37:13.995Z,16.67
2019-03-05T17:39:43.445Z,16.68
2019-03-05T17:42:12.883Z,16.67
2019-03-05T17:44:42.283Z,16.61
2019-03-05T17:47:11.707Z,16.59
2019-03-05T17:49:41.160Z,16.53
2019-03-05T17:52:10.635Z,16.44
2019-03-05T17:54:40.075Z,16.33
2019-03-05T17:57:09.497Z,16.28
2019-03-05T17:59:38.919Z,16.26
2019-03-05T18:02:08.356Z,16.19
2019-03-05T18:04:37.809Z,16.06
2019-03-05T18:07:07.269Z,15.98
2019-03-05T18:09:36.714Z,15.94
2019-03-05T18:12:06.139Z,15.86
2019-03-05T18:14:35.529Z,15.90
2019-03-05T18:17:05.599Z,15.92
2019-03-05T18:19:35.063Z,15.91
2019-03-05T18:22:04.477Z,15.90
2019-03-05T18:24:33.929Z,15.86
2019-03-05T18:27:03.284Z,15.81
2019-03-05T18:29:33.014Z,15.84
2019-03-05T18:32:02.401Z,15.84
2019-03-05T18:34:31.799Z,15.83
2019-03-05T18:37:01.264Z,15.84
2019-03-05T18:39:30.635Z,15.79
2019-03-05T18:42:00.357Z,15.85
2019-03-05T18:44:29.866Z,15.85
2019-03-05T18:46:59.380Z,15.84
2019-03-05T18:49:28.964Z,15.87
2019-03-05T18:51:58.413Z,15.96
2019-03-05T18:54:27.685Z,15.97
2019-03-05T18:56:57.146Z,16.00
2019-03-05T18:59:26.583Z,15.94
2019-03-05T19:01:57.554Z,15.92
2019-03-05T19:04:27.006Z,16.01
2019-03-05T19:06:56.379Z,15.87
2019-03-05T19:09:25.816Z,15.81
2019-03-05T19:11:55.294Z,15.72
2019-03-05T19:14:24.728Z,15.72
2019-03-05T19:16:54.503Z,15.72
2019-03-05T19:19:25.706Z,15.71
2019-03-05T19:21:55.197Z,15.55
2019-03-05T19:24:24.598Z,15.46
2019-03-05T19:26:54.024Z,15.52
2019-03-05T19:29:23.452Z,15.49
2019-03-05T19:31:52.828Z,15.52
2019-03-05T19:34:22.279Z,15.37
2019-03-05T19:36:51.724Z,15.31
2019-03-05T19:39:21.093Z,15.23
2019-03-05T19:41:56.144Z,15.33
2019-03-05T19:44:21.742Z,15.29
2019-03-05T19:46:51.183Z,15.37
2019-03-05T19:49:20.636Z,15.37
2019-03-05T19:51:50.156Z,15.36
2019-03-05T19:54:19.626Z,15.36
2019-03-05T19:56:49.088Z,15.40
2019-03-05T19:59:18.507Z,15.30
2019-03-05T20:01:47.951Z,15.13
2019-03-05T20:04:17.488Z,15.09
2019-03-05T20:06:46.926Z,14.95
2019-03-05T20:09:18.674Z,14.90
2019-03-05T20:11:48.127Z,15.01
2019-03-05T20:14:17.590Z,15.16
2019-03-05T20:16:47.059Z,15.24
2019-03-05T20:19:16.503Z,15.21
2019-03-05T20:21:45.988Z,15.07
2019-03-05T20:24:15.439Z,15.03
2019-03-05T20:26:45.167Z,14.97
2019-03-05T20:29:14.722Z,14.86
2019-03-05T20:31:44.087Z,14.79
2019-03-05T20:34:13.554Z,14.81
2019-03-05T20:36:42.969Z,14.85
2019-03-05T20:39:12.690Z,14.87
2019-03-05T20:41:42.063Z,14.99
2019-03-05T20:44:11.502Z,15.02
2019-03-05T20:46:40.942Z,15.00
2019-03-05T20:49:10.326Z,15.00
2019-03-05T20:51:39.984Z,14.97
2019-03-05T20:54:09.429Z,14.97
2019-03-05T20:56:38.890Z,14.97
2019-03-05T20:59:08.336Z,14.72
2019-03-05T21:01:37.771Z,14.67
2019-03-05T21:04:07.387Z,14.73
2019-03-05T21:06:36.837Z,14.79
2019-03-05T21:09:09.174Z,14.85
2019-03-05T21:11:38.632Z,14.85
2019-03-05T21:14:08.028Z,14.83
2019-03-05T21:16:37.393Z,14.79
2019-03-05T21:19:06.959Z,14.37
2019-03-05T21:21:36.399Z,14.25
2019-03-05T21:24:06.012Z,14.36
2019-03-05T21:26:35.425Z,14.47
2019-03-05T21:29:04.870Z,14.54
2019-03-05T21:31:34.250Z,14.59
2019-03-05T21:34:03.666Z,14.63
2019-03-05T21:36:33.040Z,14.44
2019-03-05T21:39:02.752Z,14.44
2019-03-05T21:41:32.199Z,14.23
2019-03-05T21:44:01.555Z,14.07
2019-03-05T21:46:31.002Z,14.04
2019-03-05T21:49:00.425Z,14.09
2019-03-05T21:51:29.811Z,14.10
2019-03-05T21:53:59.171Z,14.05
2019-03-05T21:56:28.604Z,13.99
2019-03-05T21:58:58.042Z,14.04
2019-03-05T22:01:27.476Z,14.06
2019-03-05T22:03:56.837Z,13.75
2019-03-05T22:06:26.286Z,13.59
2019-03-05T22:08:55.725Z,13.56
2019-03-05T22:11:25.163Z,13.67
2019-03-05T22:13:54.596Z,13.68
2019-03-05T22:16:24.036Z,13.69
2019-03-05T22:18:53.396Z,13.66
2019-03-05T22:21:22.773Z,13.66
2019-03-05T22:23:52.206Z,13.66
2019-03-05T22:26:21.921Z,13.72
2019-03-05T22:28:51.345Z,13.71
2019-03-05T22:31:20.784Z,13.69
2019-03-05T22:33:50.172Z,13.69
2019-03-05T22:36:19.589Z,13.69
2019-03-05T22:38:49.024Z,13.72
2019-03-05T22:41:18.372Z,13.74
2019-03-05T22:43:47.733Z,13.73
2019-03-05T22:46:17.105Z,13.65
2019-03-05T22:48:46.483Z,13.50
2019-03-05T22:51:15.909Z,13.44
2019-03-05T22:53:45.275Z,13.44
2019-03-05T22:56:14.701Z,13.50
2019-03-05T22:58:44.073Z,13.47
2019-03-05T23:01:13.963Z,13.41
2019-03-05T23:03:43.889Z,13.40
2019-03-05T23:06:13.813Z,13.35
2019-03-05T23:08:43.397Z,13.36
2019-03-05T23:11:12.809Z,13.34
2019-03-05T23:13:42.522Z,13.33
2019-03-05T23:16:11.932Z,13.35
2019-03-05T23:18:41.353Z,13.42
2019-03-05T23:21:10.868Z,13.40
2019-03-05T23:23:40.287Z,13.40
2019-03-05T23:26:09.909Z,13.26
2019-03-05T23:28:39.556Z,13.20
2019-03-05T23:31:11.692Z,12.94
2019-03-05T23:33:41.074Z,12.88
2019-03-05T23:36:10.609Z,12.80
2019-03-05T23:38:39.972Z,12.50
2019-03-05T23:41:09.328Z,12.40
2019-03-05T23:43:38.776Z,12.33
2019-03-05T23:46:08.145Z,12.09
2019-03-05T23:48:37.571Z,12.15
2019-03-05T23:51:06.919Z,12.12
2019-03-05T23:53:36.389Z,11.97
2019-03-05T23:56:05.757Z,12.03
2019-03-05T23:58:35.126Z,12.03
